METAR AND TAF INFORMATION
METAR FOR KL35
ADDS - METARS form results

(0317 UTC 26 February 2021)
Data provider http://aviationweather.gov/metar/data/
 
METAR text: KL35 260255Z AUTO 00000KT 10SM CLR M01/M17 A3016 RMK AO2
Conditions at: KL35 (BIG BEAR CITY , CA, US) observed 0255 UTC 26 February 2021
Temperature: -1.0°C (30°F)
Dewpoint: -17.0°C ( 1°F) [RH = 28%]
Pressure (altimeter): 30.16 inches Hg (1021.4 mb)
Winds: calm
Visibility: 10 or more miles (16+ km)
Ceiling: at least 12,000 feet AGL
Clouds: sky clear below 12,000 feet AGL
Weather: automated observation with no human augmentation;
there may or may not be significant weather present at this time

METAR text: KL35 260235Z AUTO 00000KT 10SM CLR 00/M18 A3016 RMK AO2
Conditions at: KL35 (BIG BEAR CITY , CA, US) observed 0235 UTC 26 February 2021
Temperature: 0.0°C (32°F)
Dewpoint: -18.0°C (-0°F) [RH = 24%]
Pressure (altimeter): 30.16 inches Hg (1021.4 mb)
Winds: calm
Visibility: 10 or more miles (16+ km)
Ceiling: at least 12,000 feet AGL
Clouds: sky clear below 12,000 feet AGL
Weather: automated observation with no human augmentation;
there may or may not be significant weather present at this time

 AIRPORT MAP

 RUNWAY INFORMATION
Runway 08 Runway length 5850 ft Runway width 75 ft
Runway elevation 6750 ft Runway displaced threshold 370 ft Runway heading 90
Runway 26 Runway length 5850 ft Runway width 75 ft
Runway elevation 6751 ft Runway displaced threshold 600 ft Runway heading 270

 AIRPORT FREQUENCIES
Type AWOS Name AWOS 3 Frequency 135.925 MHZ
Type CNTR Name LOS ANGELE Frequency 126.35 MHZ
Type UNIC Name CTAF/UNICO Frequency 122.725 MHZ

 AIRPORT NEAR NAVIGATION AIDS

-